Time;durP1;ratioP1;P1;durP2;ratioP2;P2;SDS_P1;SDS_P2;PMS_P1;PMS_P2;Temp;Humidity;BMP_temperature;BMP_pressure;BME280_temperature;BME280_humidity;BME280_pressure;Samples;Min_cycle;Max_cycle;Signal;HPM_P1;HPM_P2
2022/10/14 00:01:43;;;;;;;37.75;25.40;;;;;;;13.28;100.00;100519.06;5048392;28;20511;-73
2022/10/14 00:04:09;;;;;;;37.17;26.08;;;;;;;13.29;100.00;100520.78;5049732;28;20049;-74
2022/10/14 00:06:36;;;;;;;38.05;24.38;;;;;;;13.28;100.00;100521.72;5041553;28;20040;-76
2022/10/14 00:09:06;;;;;;;37.03;23.92;;;;;;;13.31;100.00;100526.88;5047667;28;20056;-77
2022/10/14 00:11:34;;;;;;;36.30;24.40;;;;;;;13.30;100.00;100522.50;5046531;28;20113;-75
2022/10/14 00:14:15;;;;;;;36.50;24.13;;;;;;;13.32;100.00;100524.13;5047100;28;20524;-75
2022/10/14 00:16:44;;;;;;;35.70;22.23;;;;;;;13.31;100.00;100521.56;5043960;28;20063;-76
2022/10/14 00:19:11;;;;;;;36.85;23.90;;;;;;;13.28;100.00;100511.09;5044005;28;20051;-76
2022/10/14 00:21:41;;;;;;;34.55;22.83;;;;;;;13.28;100.00;100519.06;5046263;28;20632;-72
2022/10/14 00:24:09;;;;;;;33.42;22.90;;;;;;;13.29;100.00;100519.00;5047957;28;20045;-69
2022/10/14 00:26:37;;;;;;;34.55;22.48;;;;;;;13.18;100.00;100492.16;5047523;28;20051;-76
2022/10/14 00:29:14;;;;;;;31.42;21.67;;;;;;;13.30;100.00;100525.16;5049295;28;20143;-77
2022/10/14 00:31:41;;;;;;;36.97;22.77;;;;;;;13.26;100.00;100507.66;5045130;28;20135;-76
2022/10/14 00:34:07;;;;;;;34.20;22.23;;;;;;;13.26;100.00;100512.97;5048035;28;20119;-74
2022/10/14 00:36:34;;;;;;;31.40;21.30;;;;;;;13.26;100.00;100520.97;5050151;28;20504;-77
2022/10/14 00:39:01;;;;;;;29.65;19.40;;;;;;;13.23;100.00;100518.47;5040499;28;20083;-76
2022/10/14 00:41:30;;;;;;;30.83;20.20;;;;;;;13.29;100.00;100528.78;5049507;28;20055;-74
2022/10/14 00:44:01;;;;;;;32.47;21.92;;;;;;;13.28;100.00;100532.38;5047124;28;20049;-76
2022/10/14 00:46:39;;;;;;;32.22;22.38;;;;;;;13.17;100.00;100508.19;5047560;28;20045;-74
2022/10/14 00:49:29;;;;;;;28.20;20.35;;;;;;;13.27;100.00;100535.97;5046429;28;20049;-76
2022/10/14 00:52:07;;;;;;;33.95;21.20;;;;;;;13.29;100.00;100528.78;5038928;28;20143;-72
2022/10/14 00:54:41;;;;;;;33.53;20.83;;;;;;;13.32;100.00;100526.81;5047026;28;20053;-77
2022/10/14 00:57:09;;;;;;;31.08;19.65;;;;;;;13.32;100.00;100523.28;5041465;28;20156;-75
2022/10/14 00:59:37;;;;;;;26.23;18.65;;;;;;;13.18;100.00;100508.09;5043072;28;20059;-76
2022/10/14 01:02:03;;;;;;;27.00;18.45;;;;;;;13.21;100.00;100509.75;5047809;28;20118;-72
2022/10/14 01:04:30;;;;;;;25.33;18.42;;;;;;;13.29;100.00;100515.47;5050796;28;20136;-78
2022/10/14 01:07:09;;;;;;;27.15;18.63;;;;;;;13.29;100.00;100515.47;5049647;28;20049;-73
2022/10/14 01:09:58;;;;;;;27.17;19.58;;;;;;;13.30;100.00;100522.50;5049316;28;20041;-77
2022/10/14 01:12:45;;;;;;;27.02;18.63;;;;;;;13.15;100.00;100502.94;5047711;28;20060;-74
2022/10/14 01:15:32;;;;;;;28.13;18.45;;;;;;;13.22;100.00;100520.25;5039843;28;20041;-77
2022/10/14 01:18:11;;;;;;;29.73;19.35;;;;;;;13.19;100.00;100528.44;5042816;28;20057;-75
2022/10/14 01:20:58;;;;;;;29.00;19.50;;;;;;;13.16;100.00;100512.66;5051737;28;20047;-73
2022/10/14 01:23:36;;;;;;;29.10;17.65;;;;;;;13.17;100.00;100519.69;5020965;28;20083;-78
2022/10/14 01:26:20;;;;;;;30.85;19.98;;;;;;;13.20;100.00;100510.69;5046608;28;20045;-76
2022/10/14 01:28:59;;;;;;;30.77;19.70;;;;;;;13.21;100.00;100515.06;5046239;28;20053;-77
2022/10/14 01:31:31;;;;;;;26.48;18.00;;;;;;;13.21;100.00;100504.41;5045257;28;20076;-78
2022/10/14 01:34:01;;;;;;;28.02;19.08;;;;;;;13.22;100.00;100503.47;5025890;28;20081;-75
2022/10/14 01:36:41;;;;;;;27.08;18.33;;;;;;;13.23;100.00;100497.19;5024589;28;20152;-74
2022/10/14 01:39:17;;;;;;;27.70;18.80;;;;;;;13.26;100.00;100499.69;5021584;28;20041;-78
2022/10/14 01:41:54;;;;;;;25.00;17.98;;;;;;;13.23;100.00;100491.88;5026509;28;20052;-76
2022/10/14 01:44:23;;;;;;;25.48;18.70;;;;;;;13.28;100.00;100496.00;5027309;28;20057;-75
2022/10/14 01:46:53;;;;;;;28.98;19.85;;;;;;;13.28;100.00;100487.16;5022725;28;20486;-75
2022/10/14 01:49:28;;;;;;;26.33;18.58;;;;;;;13.31;100.00;100487.00;5028074;28;20049;-76
2022/10/14 01:52:00;;;;;;;27.08;19.40;;;;;;;13.33;100.00;100485.09;5023236;28;20454;-78
2022/10/14 01:54:33;;;;;;;28.20;19.58;;;;;;;13.36;100.00;100479.63;5026038;28;20057;-76
2022/10/14 01:57:04;;;;;;;28.83;19.67;;;;;;;13.34;100.00;100478.84;5033380;28;20136;-76
2022/10/14 01:59:32;;;;;;;25.58;18.52;;;;;;;13.31;100.00;100474.56;5028564;28;20060;-75
2022/10/14 02:01:59;;;;;;;26.05;19.05;;;;;;;13.33;100.00;100471.81;5028244;28;20052;-77
2022/10/14 02:04:26;;;;;;;28.65;19.65;;;;;;;13.38;100.00;100474.22;5027934;28;20462;-78
2022/10/14 02:07:33;;;;;;;28.40;19.25;;;;;;;13.40;100.00;100465.19;5030706;28;20068;-74
2022/10/14 02:10:12;;;;;;;31.40;19.70;;;;;;;13.39;100.00;100473.25;5026525;28;20053;-77
2022/10/14 02:12:58;;;;;;;25.65;18.95;;;;;;;13.33;100.00;100461.16;5028001;28;20069;-78
2022/10/14 02:15:39;;;;;;;30.85;20.25;;;;;;;13.34;100.00;100471.72;5025420;28;20049;-76
2022/10/14 02:18:13;;;;;;;27.55;19.10;;;;;;;13.33;100.00;100462.03;5025622;28;20469;-77
2022/10/14 02:20:59;;;;;;;25.38;18.95;;;;;;;13.33;100.00;100461.16;5026550;28;20046;-77
2022/10/14 02:23:31;;;;;;;28.70;20.45;;;;;;;13.11;100.00;100418.09;5020812;28;20142;-71
2022/10/14 02:26:00;;;;;;;27.13;19.33;;;;;;;13.32;100.00;100449.69;5026041;28;20061;-77
2022/10/14 02:28:28;;;;;;;27.25;20.00;;;;;;;13.31;100.00;100449.75;5026575;28;20474;-76
2022/10/14 02:31:00;;;;;;;27.02;20.17;;;;;;;13.28;100.00;100442.81;5029354;28;20050;-70
2022/10/14 02:33:40;;;;;;;28.65;20.05;;;;;;;13.28;100.00;100441.94;5046906;28;20053;-75
2022/10/14 02:36:08;;;;;;;;;;;;;;;13.31;100.00;100436.47;5048415;28;20045;-74
2022/10/14 02:38:36;;;;;;;30.17;20.52;;;;;;;13.19;100.00;100418.56;5049836;28;20300;-74
2022/10/14 02:41:06;;;;;;;28.52;19.80;;;;;;;13.24;100.00;100432.41;5045689;28;20041;-76
2022/10/14 02:43:33;;;;;;;32.58;21.95;;;;;;;13.21;100.00;100430.81;5051611;28;20049;-77
2022/10/14 02:46:03;;;;;;;28.70;20.90;;;;;;;13.22;100.00;100431.69;5048835;28;20052;-71
2022/10/14 02:48:30;;;;;;;33.87;20.33;;;;;;;13.27;100.00;100432.25;5047672;28;20049;-76
2022/10/14 02:50:57;;;;;;;32.08;21.65;;;;;;;13.25;100.00;100432.34;5041780;28;20053;-75
2022/10/14 02:53:23;;;;;;;31.60;20.23;;;;;;;13.20;100.00;100422.94;5052744;28;20056;-73
2022/10/14 02:55:50;;;;;;;33.05;21.85;;;;;;;13.19;100.00;100430.06;5045511;28;20048;-78
2022/10/14 02:58:16;;;;;;;31.70;21.73;;;;;;;13.09;100.00;100404.03;5053053;28;20041;-77
2022/10/14 03:00:43;;;;;;;33.22;22.67;;;;;;;13.11;100.00;100402.13;5049185;28;20048;-73
2022/10/14 03:03:10;;;;;;;32.88;22.60;;;;;;;13.15;100.00;100409.88;5048390;28;20563;-74
2022/10/14 03:05:36;;;;;;;32.72;21.15;;;;;;;13.13;100.00;100402.91;5051391;28;20045;-76
2022/10/14 03:08:03;;;;;;;34.92;20.50;;;;;;;13.16;100.00;100408.09;5049134;28;20052;-76
2022/10/14 03:10:30;;;;;;;31.73;22.08;;;;;;;13.11;100.00;100402.13;5064694;28;20700;-72
2022/10/14 03:12:57;;;;;;;31.60;21.10;;;;;;;13.04;100.00;100390.16;5052110;28;20057;-76
2022/10/14 03:15:23;;;;;;;34.95;22.05;;;;;;;13.11;100.00;100404.78;5049043;28;20055;-74
2022/10/14 03:17:50;;;;;;;33.10;21.98;;;;;;;13.09;100.00;100396.03;5046786;28;20162;-76
2022/10/14 03:20:17;;;;;;;33.80;22.95;;;;;;;13.08;100.00;100403.16;5051508;28;20057;-76
2022/10/14 03:22:43;;;;;;;33.47;22.73;;;;;;;13.05;100.00;100397.19;5049100;28;20416;-75
2022/10/14 03:25:10;;;;;;;32.97;21.80;;;;;;;13.01;100.00;100404.47;5048185;28;20037;-74
2022/10/14 03:27:36;;;;;;;32.25;21.77;;;;;;;13.04;100.00;100393.66;5048832;28;20045;-72
2022/10/14 03:30:03;;;;;;;31.13;21.70;;;;;;;13.06;100.00;100393.59;5049304;28;20044;-72
2022/10/14 03:32:30;;;;;;;31.23;21.50;;;;;;;13.00;100.00;100382.34;5046564;28;20401;-76
2022/10/14 03:34:57;;;;;;;30.98;21.13;;;;;;;13.13;100.00;100401.09;5048316;28;20061;-71
2022/10/14 03:37:23;;;;;;;29.67;20.90;;;;;;;13.03;100.00;100372.50;5045986;28;20536;-74
2022/10/14 03:39:50;;;;;;;30.77;21.20;;;;;;;13.17;100.00;100393.84;5047979;28;20061;-78
2022/10/14 03:42:16;;;;;;;32.63;22.60;;;;;;;13.10;100.00;100390.66;5050522;28;20083;-76
2022/10/14 03:44:45;;;;;;;31.10;20.92;;;;;;;13.14;100.00;100396.66;5044380;28;20053;-72
2022/10/14 03:47:11;;;;;;;35.20;22.60;;;;;;;13.13;100.00;100394.94;5044412;28;20045;-75
2022/10/14 03:49:38;;;;;;;32.72;21.05;;;;;;;13.03;100.00;100381.31;5049689;28;20556;-73
2022/10/14 03:52:04;;;;;;;37.28;24.95;;;;;;;13.10;100.00;100384.47;5040590;28;20044;-76
2022/10/14 03:54:31;;;;;;;30.08;21.13;;;;;;;13.12;100.00;100388.75;5047624;28;20045;-76
2022/10/14 03:56:58;;;;;;;33.33;22.38;;;;;;;13.09;100.00;100386.28;5041560;28;20045;-76
2022/10/14 03:59:24;;;;;;;31.60;21.75;;;;;;;13.06;100.00;100383.81;5045589;28;20076;-75
2022/10/14 04:01:51;;;;;;;33.13;22.13;;;;;;;13.02;100.00;100378.75;5054959;28;20063;-76
2022/10/14 04:04:17;;;;;;;36.83;23.80;;;;;;;13.03;100.00;100383.97;5046743;28;20064;-75
2022/10/14 04:06:44;;;;;;;34.72;22.88;;;;;;;12.99;100.00;100383.28;5030464;28;20147;-76
2022/10/14 04:09:11;;;;;;;33.80;22.35;;;;;;;13.02;100.00;100376.94;5048253;28;20041;-75
2022/10/14 04:11:37;;;;;;;31.15;21.98;;;;;;;13.05;100.00;100378.59;5048225;28;20063;-75
2022/10/14 04:14:04;;;;;;;33.05;22.90;;;;;;;13.05;100.00;100376.78;5046295;28;20045;-76
2022/10/14 04:16:30;;;;;;;36.08;22.52;;;;;;;13.11;100.00;100381.72;5049395;28;20045;-78
2022/10/14 04:18:57;;;;;;;31.77;21.92;;;;;;;13.12;100.00;100385.25;5049592;28;20475;-76
2022/10/14 04:21:24;;;;;;;31.73;21.27;;;;;;;13.16;100.00;100384.16;5051652;28;20048;-72
2022/10/14 04:23:51;;;;;;;32.70;19.52;;;;;;;13.08;100.00;100367.75;5052028;28;20052;-75
2022/10/14 04:26:17;;;;;;;32.50;20.42;;;;;;;13.22;100.00;100383.81;5045856;28;20056;-76
2022/10/14 04:28:44;;;;;;;28.00;19.00;;;;;;;13.24;100.00;100381.91;5031161;28;20472;-71
2022/10/14 04:31:11;;;;;;;31.85;20.55;;;;;;;13.26;100.00;100380.88;5050450;28;20045;-76
2022/10/14 04:33:37;;;;;;;28.88;19.35;;;;;;;13.18;100.00;100367.19;5047551;28;20048;-76
2022/10/14 04:36:05;;;;;;;27.83;19.23;;;;;;;13.18;100.00;100361.84;5047116;28;20116;-76
2022/10/14 04:38:32;;;;;;;29.17;19.25;;;;;;;13.29;100.00;100378.03;5052552;28;20500;-76
2022/10/14 04:40:59;;;;;;;31.15;19.65;;;;;;;13.29;100.00;100371.84;5046628;28;20055;-76
2022/10/14 04:43:25;;;;;;;27.95;18.25;;;;;;;13.29;100.00;100379.84;5047854;28;20064;-77
2022/10/14 04:45:53;;;;;;;28.77;18.70;;;;;;;13.27;100.00;100361.31;5041574;28;20281;-76
2022/10/14 04:48:20;;;;;;;27.83;18.70;;;;;;;13.28;100.00;100362.16;5043388;28;20053;-76
2022/10/14 04:50:50;;;;;;;27.10;18.83;;;;;;;13.19;100.00;100334.31;5041053;28;20144;-75
2022/10/14 04:53:17;;;;;;;27.38;17.88;;;;;;;13.40;100.00;100360.59;5049088;28;20106;-75
2022/10/14 04:55:48;;;;;;;25.33;17.92;;;;;;;13.33;100.00;100349.47;5044747;28;20045;-74
2022/10/14 04:58:15;;;;;;;26.52;17.60;;;;;;;13.37;100.00;100348.34;5043422;28;20045;-74
2022/10/14 05:00:42;;;;;;;28.88;16.90;;;;;;;13.25;100.00;100330.44;5055366;28;20073;-70
2022/10/14 05:03:09;;;;;;;25.58;16.58;;;;;;;13.37;100.00;100358.13;5057663;28;20132;-73
2022/10/14 05:05:35;;;;;;;30.55;17.45;;;;;;;13.32;100.00;100332.66;5045937;28;20136;-77
2022/10/14 05:08:02;;;;;;;27.05;17.55;;;;;;;13.35;100.00;100352.91;5046993;28;20140;-70
2022/10/14 05:10:29;;;;;;;27.52;17.27;;;;;;;13.32;100.00;100348.59;5042183;28;20404;-73
2022/10/14 05:12:55;;;;;;;25.35;16.58;;;;;;;13.30;100.00;100342.53;5044506;28;20040;-76
2022/10/14 05:15:22;;;;;;;27.35;17.90;;;;;;;13.28;100.00;100340.88;5043760;28;20318;-74
2022/10/14 05:17:49;;;;;;;27.55;17.65;;;;;;;13.27;100.00;100341.84;5041979;28;20087;-73
2022/10/14 05:20:15;;;;;;;24.17;17.45;;;;;;;13.22;100.00;100336.78;5040441;28;20507;-74
2022/10/14 05:22:44;;;;;;;24.77;17.65;;;;;;;13.19;100.00;100336.13;5046060;28;20053;-75
2022/10/14 05:25:11;;;;;;;26.70;18.23;;;;;;;13.22;100.00;100347.41;5046613;28;20057;-74
2022/10/14 05:27:37;;;;;;;24.73;17.08;;;;;;;13.19;100.00;100339.66;5045415;28;20489;-74
2022/10/14 05:30:04;;;;;;;27.88;17.77;;;;;;;13.17;100.00;100336.22;5043384;28;20144;-74
2022/10/14 05:32:31;;;;;;;24.98;16.92;;;;;;;13.18;100.00;100339.72;5039651;28;20404;-73
2022/10/14 05:34:58;;;;;;;28.50;17.90;;;;;;;13.17;100.00;100338.00;5036436;28;20053;-75
2022/10/14 05:37:25;;;;;;;26.85;18.50;;;;;;;13.07;100.00;100311.06;5041972;28;20383;-74
2022/10/14 05:39:51;;;;;;;26.08;17.20;;;;;;;13.17;100.00;100336.22;5051498;28;20049;-73
2022/10/14 05:42:18;;;;;;;26.35;18.08;;;;;;;13.18;100.00;100332.63;5038335;28;20409;-74
2022/10/14 05:44:45;;;;;;;26.45;18.52;;;;;;;13.04;100.00;100315.72;5035165;28;20092;-72
2022/10/14 05:47:12;;;;;;;27.20;18.23;;;;;;;13.08;100.00;100314.56;5036543;28;20415;-73
2022/10/14 05:49:39;;;;;;;28.60;19.48;;;;;;;13.22;100.00;100325.31;5036868;28;20045;-74
2022/10/14 05:52:05;;;;;;;26.80;18.05;;;;;;;13.21;100.00;100336.91;5043244;28;20105;-74
2022/10/14 05:54:32;;;;;;;30.65;18.63;;;;;;;13.17;100.00;100322.06;5046299;28;20401;-72
2022/10/14 05:56:58;;;;;;;29.10;19.00;;;;;;;13.12;100.00;100310.81;5039279;28;20048;-74
2022/10/14 05:59:25;;;;;;;30.23;18.92;;;;;;;13.25;100.00;100333.09;5037130;28;20126;-74
2022/10/14 06:01:51;;;;;;;30.42;20.48;;;;;;;13.23;100.00;100329.66;5037945;28;20044;-75
2022/10/14 06:04:20;;;;;;;28.30;18.23;;;;;;;13.26;100.00;100326.81;5041710;28;20041;-75
2022/10/14 06:06:46;;;;;;;30.38;18.55;;;;;;;13.26;100.00;100326.81;5038105;28;20132;-73
2022/10/14 06:09:13;;;;;;;28.80;19.15;;;;;;;13.22;100.00;100325.31;5039906;28;20037;-75
2022/10/14 06:11:40;;;;;;;28.02;19.08;;;;;;;13.15;100.00;100323.94;5039568;28;20045;-73
2022/10/14 06:14:06;;;;;;;26.50;19.13;;;;;;;13.16;100.00;100334.50;5034838;28;20132;-70
2022/10/14 06:16:33;;;;;;;31.02;20.70;;;;;;;13.13;100.00;100326.66;5035700;28;20488;-72
2022/10/14 06:19:00;;;;;;;30.75;19.65;;;;;;;13.14;100.00;100336.34;5035838;28;20484;-72
2022/10/14 06:21:27;;;;;;;34.70;20.50;;;;;;;13.19;100.00;100330.81;5042652;28;20059;-72
2022/10/14 06:23:53;;;;;;;31.13;19.45;;;;;;;13.19;100.00;100325.50;5042118;28;20059;-73
2022/10/14 06:26:20;;;;;;;35.35;18.80;;;;;;;13.21;100.00;100316.47;5029279;28;20064;-74
2022/10/14 06:28:47;;;;;;;27.23;18.95;;;;;;;13.28;100.00;100314.31;5022492;28;20051;-74
2022/10/14 06:31:14;;;;;;;28.17;18.35;;;;;;;13.32;100.00;100316.69;5030190;28;20454;-72
2022/10/14 06:33:42;;;;;;;28.08;18.45;;;;;;;13.32;100.00;100319.34;5028053;28;20053;-74
2022/10/14 06:36:09;;;;;;;29.35;19.35;;;;;;;13.25;100.00;100309.16;5030632;28;20438;-73
2022/10/14 06:38:36;;;;;;;27.50;18.33;;;;;;;13.24;100.00;100300.31;5031513;28;20051;-73
2022/10/14 06:41:02;;;;;;;30.58;20.98;;;;;;;13.36;100.00;100308.53;5038225;28;20572;-73
2022/10/14 06:43:29;;;;;;;31.35;19.85;;;;;;;13.49;100.00;100328.13;5007913;28;20040;-73
2022/10/14 06:45:57;;;;;;;32.65;21.05;;;;;;;13.50;100.00;100322.72;5022143;28;20049;-73
2022/10/14 06:48:23;;;;;;;29.17;20.35;;;;;;;13.33;100.00;100302.44;5026001;28;20083;-72
2022/10/14 06:50:50;;;;;;;31.77;20.42;;;;;;;13.34;100.00;100308.63;5026379;28;20378;-73
2022/10/14 06:53:17;;;;;;;32.85;20.08;;;;;;;13.50;100.00;100336.03;5028036;28;20040;-73
2022/10/14 06:55:44;;;;;;;27.73;19.95;;;;;;;13.50;100.00;100336.03;5034498;28;20053;-74
2022/10/14 06:58:10;;;;;;;33.00;20.80;;;;;;;13.44;100.00;100323.06;5041365;28;20050;-73
2022/10/14 07:00:37;;;;;;;28.52;19.17;;;;;;;13.52;100.00;100342.13;5043928;28;20060;-76
2022/10/14 07:03:03;;;;;;;28.45;19.17;;;;;;;13.61;100.00;100340.69;5038163;28;20132;-73
2022/10/14 07:05:30;;;;;;;29.08;20.05;;;;;;;13.54;100.00;100316.25;5036114;28;20049;-73
2022/10/14 07:07:57;;;;;;;32.58;19.85;;;;;;;13.67;100.00;100327.03;5037306;28;20056;-72
2022/10/14 07:10:24;;;;;;;29.77;19.48;;;;;;;13.75;100.00;100330.06;5032615;28;20140;-72
2022/10/14 07:12:54;;;;;;;32.75;20.35;;;;;;;13.79;100.00;100323.63;5034511;28;21635;-72
2022/10/14 07:15:21;;;;;;;28.13;19.02;;;;;;;13.83;100.00;100322.47;5034933;28;20080;-72
2022/10/14 07:17:48;;;;;;;29.17;19.92;;;;;;;13.74;100.00;100299.06;5039330;28;20545;-72
2022/10/14 07:20:15;;;;;;;28.80;18.60;;;;;;;13.93;100.00;100328.94;5039890;28;20476;-73
2022/10/14 07:22:41;;;;;;;32.20;20.77;;;;;;;13.92;100.00;100324.56;5040063;28;20049;-74
2022/10/14 07:25:08;;;;;;;27.38;19.35;;;;;;;13.71;100.00;100288.59;5038350;28;21036;-73
2022/10/14 07:27:35;;;;;;;28.50;18.00;;;;;;;13.93;100.00;100322.75;5020647;28;20405;-73
2022/10/14 07:30:03;;;;;;;30.20;18.23;;;;;;;13.84;100.00;100307.38;5034758;28;20813;-73
2022/10/14 07:32:30;;;;;;;33.55;20.40;;;;;;;13.95;100.00;100324.38;5040326;28;20053;-73
2022/10/14 07:34:57;;;;;;;26.52;18.38;;;;;;;13.95;100.00;100331.50;5037115;28;20417;-74
2022/10/14 07:37:24;;;;;;;27.13;18.05;;;;;;;13.89;100.00;100315.91;5038267;28;20468;-72
2022/10/14 07:39:50;;;;;;;28.15;18.73;;;;;;;14.01;100.00;100320.47;5037680;28;20778;-73
2022/10/14 07:42:17;;;;;;;27.33;19.17;;;;;;;14.10;100.00;100327.03;5036810;28;20058;-73
2022/10/14 07:44:44;;;;;;;26.33;18.65;;;;;;;13.98;100.00;100313.53;5035453;28;20343;-71
2022/10/14 07:47:11;;;;;;;29.95;19.02;;;;;;;14.13;100.00;100335.69;5037672;28;20156;-72
2022/10/14 07:49:38;;;;;;;29.25;19.65;;;;;;;14.17;100.00;100328.34;5035792;28;20163;-72
2022/10/14 07:52:05;;;;;;;31.60;19.80;;;;;;;14.17;100.00;100321.22;5037966;28;20055;-73
2022/10/14 07:54:32;;;;;;;30.73;20.25;;;;;;;14.14;100.00;100310.78;5038856;28;20128;-71
2022/10/14 07:56:58;;;;;;;32.63;20.95;;;;;;;14.24;100.00;100319.88;5036268;28;20056;-73
2022/10/14 07:59:26;;;;;;;31.70;20.67;;;;;;;14.20;100.00;100322.81;5038590;28;20081;-74
2022/10/14 08:01:55;;;;;;;29.40;20.30;;;;;;;14.23;100.00;100327.97;5036145;28;20139;-72
2022/10/14 08:04:23;;;;;;;32.33;20.70;;;;;;;14.04;100.00;100309.63;5036181;28;20049;-71
2022/10/14 08:06:50;;;;;;;33.78;21.20;;;;;;;14.15;100.00;100332.94;5033495;28;20041;-73
2022/10/14 08:09:18;;;;;;;36.40;22.27;;;;;;;14.16;100.00;100340.84;5036140;28;20047;-74
2022/10/14 08:11:45;;;;;;;32.45;20.48;;;;;;;14.00;100.00;100310.78;5039519;28;20402;-72
2022/10/14 08:14:12;;;;;;;33.08;21.02;;;;;;;14.03;100.00;100322.06;5037042;28;20170;-72
2022/10/14 08:16:39;;;;;;;32.03;20.63;;;;;;;13.89;100.00;100297.28;5037111;28;20068;-72
2022/10/14 08:19:09;;;;;;;36.83;22.25;;;;;;;14.03;100.00;100323.88;5036620;28;20106;-72
2022/10/14 08:21:41;;;;;;;38.47;21.70;;;;;;;14.03;100.00;100323.88;5037332;28;20041;-72
2022/10/14 08:24:09;;;;;;;32.42;21.38;;;;;;;14.04;100.00;100326.44;5037041;28;20069;-72
2022/10/14 08:26:37;;;;;;;36.00;22.55;;;;;;;14.10;100.00;100319.03;5035581;28;20060;-74
2022/10/14 08:29:10;;;;;;;34.78;23.00;;;;;;;14.02;100.00;100293.75;5034187;28;20053;-73
2022/10/14 08:31:37;;;;;;;34.95;22.85;;;;;;;14.15;100.00;100307.16;5035613;28;20103;-74
2022/10/14 08:34:03;;;;;;;35.58;23.42;;;;;;;14.18;100.00;100306.94;5034899;28;20053;-74
2022/10/14 08:36:30;;;;;;;35.92;23.55;;;;;;;14.36;100.00;100315.59;5037387;28;20053;-76
2022/10/14 08:38:57;;;;;;;32.63;23.08;;;;;;;14.38;100.00;100313.69;5038770;28;20048;-75
2022/10/14 08:41:53;;;;;;;34.58;22.73;;;;;;;14.46;100.00;100305.25;5037885;28;20087;-75
2022/10/14 08:44:22;;;;;;;35.90;22.30;;;;;;;14.56;100.00;100301.03;5036464;28;20539;-75
2022/10/14 08:46:52;;;;;;;31.60;21.73;;;;;;;14.64;100.00;100304.88;5037766;28;20768;-75
2022/10/14 08:49:28;;;;;;;34.35;22.10;;;;;;;14.71;100.00;100302.69;5035277;28;20049;-76
2022/10/14 08:52:02;;;;;;;36.45;23.13;;;;;;;14.70;100.00;100304.50;5036384;28;20053;-74
2022/10/14 08:54:42;;;;;;;31.25;20.98;;;;;;;14.64;100.00;100304.03;5033836;28;20037;-75
2022/10/14 08:57:16;;;;;;;36.15;22.35;;;;;;;14.60;100.00;100305.19;5031761;28;20044;-76
2022/10/14 08:59:44;;;;;;;33.28;20.20;;;;;;;14.42;100.00;100307.25;5037783;28;20044;-77
2022/10/14 09:02:54;;;;;;;31.35;19.95;;;;;;;14.29;100.00;100303.63;5038856;28;20067;-73
2022/10/14 09:05:23;;;;;;;30.60;19.52;;;;;;;14.42;100.00;100325.03;4936951;28;20059;-76
2022/10/14 09:07:54;;;;;;;29.87;19.23;;;;;;;14.40;100.00;100314.47;5012934;28;20048;-75
2022/10/14 09:10:30;;;;;;;33.20;20.58;;;;;;;14.47;100.00;100315.81;5035638;28;20056;-75
2022/10/14 09:13:10;;;;;;;28.67;20.08;;;;;;;14.51;100.00;100298.63;5035692;28;20456;-75
2022/10/14 09:15:41;;;;;;;27.50;19.58;;;;;;;14.63;100.00;100297.00;5032241;28;20041;-75
2022/10/14 09:18:34;;;;;;;31.65;19.48;;;;;;;14.62;100.00;100285.50;5032246;28;20053;-73
2022/10/14 09:21:07;;;;;;;37.78;22.27;;;;;;;14.72;100.00;100305.25;5035913;28;20056;-73
2022/10/14 09:23:34;;;;;;;28.48;18.67;;;;;;;14.65;100.00;100287.09;5032391;28;20153;-74
2022/10/14 09:26:07;;;;;;;26.20;18.98;;;;;;;14.76;100.00;100302.38;5030834;28;20045;-73
2022/10/14 09:28:37;;;;;;;27.55;17.30;;;;;;;14.71;100.00;100294.69;5038950;28;20067;-72
2022/10/14 09:31:06;;;;;;;27.88;18.33;;;;;;;14.74;100.00;100283.81;5040510;28;20052;-74
2022/10/14 09:33:38;;;;;;;22.20;16.33;;;;;;;14.80;100.00;100280.75;5049201;28;20148;-75
2022/10/14 09:36:17;;;;;;;25.38;17.92;;;;;;;14.71;100.00;100242.22;5040358;28;20084;-74
2022/10/14 09:38:46;;;;;;;24.17;16.33;;;;;;;14.93;100.00;100268.34;5041888;28;20446;-74
2022/10/14 09:41:15;;;;;;;27.92;19.10;;;;;;;14.98;100.00;100263.53;5041950;28;20045;-74
2022/10/14 09:44:24;;;;;;;25.17;17.50;;;;;;;15.02;100.00;100259.69;5039030;28;20140;-75
2022/10/14 09:47:02;;;;;;;23.23;16.42;;;;;;;15.03;100.00;100253.41;4953720;28;20075;-74
2022/10/14 09:49:38;;;;;;;23.80;16.17;;;;;;;15.03;100.00;100252.56;4960818;28;20062;-75
2022/10/14 09:52:07;;;;;;;21.90;16.05;;;;;;;15.11;100.00;100249.38;5012774;28;20450;-75
2022/10/14 09:54:34;;;;;;;21.95;15.60;;;;;;;15.13;100.00;100231.44;5042410;28;20117;-74
2022/10/14 09:57:07;;;;;;;19.70;14.82;;;;;;;15.30;100.00;100241.81;5036546;28;20078;-74
2022/10/14 09:59:50;;;;;;;22.20;15.52;;;;;;;15.31;100.00;100235.50;5037436;28;20136;-73
2022/10/14 10:02:23;;;;;;;24.98;16.92;;;;;;;15.21;100.00;100210.44;5041523;28;20045;-75
2022/10/14 10:04:51;;;;;;;20.45;15.55;;;;;;;15.34;100.00;100225.50;5039395;28;20132;-74
2022/10/14 10:07:32;;;;;;;21.48;15.93;;;;;;;15.29;100.00;100208.94;5038250;28;20067;-75
2022/10/14 10:10:00;;;;;;;25.73;16.60;;;;;;;15.37;100.00;100206.59;5043384;28;20076;-75
2022/10/14 10:12:34;;;;;;;23.35;16.95;;;;;;;15.59;100.00;100224.66;5042726;28;20088;-73
2022/10/14 10:15:04;;;;;;;23.80;16.50;;;;;;;15.78;100.00;100229.53;5043532;28;20071;-73
2022/10/14 10:17:34;;;;;;;28.90;17.27;;;;;;;15.94;100.00;100221.28;5026156;28;20163;-72
2022/10/14 10:20:27;;;;;;;21.10;15.43;;;;;;;16.18;100.00;100219.53;5041139;28;20060;-74
2022/10/14 10:22:55;;;;;;;21.02;15.95;;;;;;;16.42;100.00;100209.69;5043990;28;20690;-74
2022/10/14 10:25:27;;;;;;;20.17;14.93;;;;;;;16.75;100.00;100224.22;5051265;28;20048;-75
2022/10/14 10:27:57;;;;;;;23.58;14.20;;;;;;;16.80;100.00;100200.69;5049769;28;20105;-75
2022/10/14 10:30:51;;;;;;;23.88;13.90;;;;;;;16.82;100.00;100204.94;5052295;28;20056;-74
2022/10/14 10:33:32;;;;;;;17.92;11.73;;;;;;;16.86;100.00;100218.91;5016322;28;20506;-74
2022/10/14 10:36:08;;;;;;;19.35;13.65;;;;;;;16.80;100.00;100216.72;5048576;28;20214;-73
2022/10/14 10:39:19;;;;;;;19.40;13.35;;;;;;;16.45;100.00;100219.31;5051353;28;20045;-76
2022/10/14 10:42:10;;;;;;;18.85;11.43;;;;;;;16.20;100.00;100190.91;5041538;28;20044;-74
2022/10/14 10:44:52;;;;;;;19.50;13.50;;;;;;;16.26;100.00;100202.94;5049870;28;20072;-74
2022/10/14 10:47:30;;;;;;;19.45;12.85;;;;;;;16.29;100.00;100202.72;5045560;28;20060;-76
2022/10/14 10:50:15;;;;;;;20.45;13.43;;;;;;;16.33;100.00;100204.19;5049130;28;20053;-74
2022/10/14 10:53:06;;;;;;;17.83;13.40;;;;;;;16.27;100.00;100186.78;5049946;28;20124;-72
2022/10/14 10:55:47;;;;;;;16.85;11.80;;;;;;;16.44;100.00;100206.91;5047559;28;20060;-73
2022/10/14 10:58:34;;;;;;;21.65;12.15;;;;;;;16.44;100.00;100202.44;5046702;28;20087;-74
2022/10/14 11:01:16;;;;;;;16.83;10.60;;;;;;;16.40;100.00;100195.59;5049135;28;20151;-75
2022/10/14 11:04:20;;;;;;;20.40;11.65;;;;;;;16.29;100.00;100174.19;5051402;28;20049;-74
2022/10/14 11:12:47;;;;;;;15.30;10.63;;;;;;;16.32;100.00;100192.66;5061728;28;20056;-73
2022/10/14 11:15:21;;;;;;;16.13;10.13;;;;;;;16.30;100.00;100183.03;5063233;28;20420;-74
2022/10/14 11:17:59;;;;;;;16.55;10.50;;;;;;;16.14;100.00;100161.94;5051178;28;20305;-74
2022/10/14 11:20:50;;;;;;;17.27;10.85;;;;;;;16.21;100.00;100178.38;5057336;28;20048;-74
2022/10/14 11:24:00;;;;;;;19.52;10.02;;;;;;;16.14;100.00;100168.16;5045158;28;20147;-75
2022/10/14 11:26:57;;;;;;;16.33;11.10;;;;;;;16.16;100.00;100169.84;5005020;28;20072;-76